San Jon, NM

5:08 PM MDT on October 24, 2014 (GMT -0600)
Cannon Air Force Base | Change Station
CLOSE
Current Station
Airport
Location: Clovis Cannon AFB,
Elevation: 4295 ft
Nearby Weather Stations

Elev 4295 ft 34.38 °N, 103.32 °W | Updated 10 minutes ago

Clear
Clear
82 °F
Feels Like 82 °F
N
12
Wind Variable Wind from SW

Today
High -- | Low -- °F
--% Chance of Precip.
Yesterday
High -- | Low -- °F
Precip. -- in
7:07 AM 6:07 PM
New Moon, 1% visible
Pressure 30.00 in
Visibility 10.0 miles
Clouds Clear
Dew Point 40 °F
Humidity 23%
Rainfall 0.00 in
Snow Depth Not available.
UV 1 out of 12
Pollen 6.30 out of 12
Air Quality Not available.
Flu Activity Sporadic
METAR KCVS 242258Z AUTO 22010KT 10SM CLR 28/05 A3015 RMK AO2 SLP158 T02780046 $

More Conditions Fewer Conditions

Pressure 30.00 in
Visibility 10.0 miles
Clouds Clear
Dew Point 40 °F
Humidity 23%
Rainfall 0.00 in
Snow Depth Not available.
UV 1 out of 12
Pollen 6.30 out of 12
Air Quality Not available.
Flu Activity Sporadic
METAR KCVS 242258Z AUTO 22010KT 10SM CLR 28/05 A3015 RMK AO2 SLP158 T02780046 $

More Conditions Fewer Conditions

10-Day Weather Forecast

Almanac

Astronomy

Oct. 24, 2014 Rise Set
Actual Time 7:07 AM MDT 6:07 PM MDT
Civil Twilight 6:41 AM MDT 6:33 PM MDT
Nautical Twilight 6:11 AM MDT 7:02 PM MDT
Astronomical Twilight 5:42 AM MDT 7:32 PM MDT
Moon 7:47 AM MDT 6:50 PM MDT
Length of Visible Light 11h 51m
Length of Day
11h 00m
Tomorrow will be 2m 2s shorter.
New Moon, 1% of the Moon is Illuminated
Today
New Moon
Oct 30
First Quarter
Nov 6
Full
Nov 14
Last Quarter
Nov 22
New

Today's Extremes

State Highs State Lows

Community

WunderPhotos

Upload Photos

1,764,705 photos uploaded!

Nearby

Snow Depth

Station Depth Elevation
Wesner Springs 3 in 11120 ft
Elk Cabin 0 in 8210 ft
Santa Fe 0 in 11445 ft
Senorita Divide #2 0 in 8600 ft
McKnight Cabin 0 in 9240 ft

Earthquake Activity

City Distance Mag. Time & Date
No recent earthquake activity has been reported nearby.
Minimum magnitude displayed is 2.5.

Coastal Water Temperatures

Place Temperature
No Stations Reporting

Nearby Weather Stations